Time;durP1;ratioP1;P1;durP2;ratioP2;P2;SDS_P1;SDS_P2;PMS_P1;PMS_P2;Temp;Humidity;BMP_temperature;BMP_pressure;BME280_temperature;BME280_humidity;BME280_pressure;Samples;Min_cycle;Max_cycle;Signal;HPM_P1;HPM_P2
2022/10/22 00:00:13;;;;;;;38.55;17.55;;;13.90;99.90;;;;;;5083590;28;20032;-83
2022/10/22 00:02:39;;;;;;;38.30;16.33;;;13.90;99.90;;;;;;5084542;28;20013;-82
2022/10/22 00:05:05;;;;;;;31.15;17.35;;;13.90;99.90;;;;;;5083607;28;20047;-83
2022/10/22 00:07:31;;;;;;;27.58;16.08;;;13.90;99.90;;;;;;5083728;28;20499;-82
2022/10/22 00:09:56;;;;;;;33.78;16.45;;;13.80;99.90;;;;;;5078555;28;20032;-87
2022/10/22 00:12:22;;;;;;;56.22;17.63;;;13.80;99.90;;;;;;5083989;28;20472;-83
2022/10/22 00:14:48;;;;;;;70.38;17.77;;;13.80;99.90;;;;;;5084737;28;20486;-83
2022/10/22 00:17:14;;;;;;;328.13;19.45;;;13.80;99.90;;;;;;5084925;28;20028;-83
2022/10/22 00:19:40;;;;;;;28.38;15.15;;;13.80;99.90;;;;;;5084355;28;20029;-82
2022/10/22 00:22:07;;;;;;;48.95;16.73;;;13.70;99.90;;;;;;5084324;28;20043;-83
2022/10/22 00:24:33;;;;;;;28.60;15.07;;;13.70;99.90;;;;;;5082343;28;20048;-83
2022/10/22 00:26:59;;;;;;;40.33;14.40;;;13.70;99.90;;;;;;5077664;28;20073;-85
2022/10/22 00:29:25;;;;;;;27.92;15.20;;;13.70;99.90;;;;;;5084365;28;20051;-82
2022/10/22 00:31:50;;;;;;;65.00;14.05;;;13.60;99.90;;;;;;5084278;28;20020;-80
2022/10/22 00:34:18;;;;;;;47.45;14.65;;;13.60;99.90;;;;;;5083981;28;20020;-81
2022/10/22 00:36:45;;;;;;;31.73;13.45;;;13.60;99.90;;;;;;5084783;28;20020;-83
2022/10/22 00:40:04;;;;;;;;;;;;;;;;;;;;;
2022/10/22 00:42:32;;;;;;;449.30;14.48;;;13.60;99.90;;;;;;5096789;28;20055;-83
2022/10/22 00:45:03;;;;;;;372.98;13.23;;;13.60;99.90;;;;;;5081666;28;20103;-82
2022/10/22 00:47:41;;;;;;;78.57;11.43;;;13.50;99.90;;;;;;5082034;28;20052;-82
2022/10/22 00:50:14;;;;;;;45.30;11.00;;;13.50;99.90;;;;;;5077849;28;20032;-83
2022/10/22 00:52:40;;;;;;;58.42;10.82;;;13.50;99.90;;;;;;5083391;28;20024;-83
2022/10/22 00:55:06;;;;;;;39.88;10.38;;;13.40;99.90;;;;;;5083483;28;20518;-82
2022/10/22 00:57:33;;;;;;;16.25;9.48;;;13.40;99.90;;;;;;5083129;28;20448;-81
2022/10/22 00:59:59;;;;;;;21.48;10.18;;;13.40;99.90;;;;;;5076220;28;20028;-83
2022/10/22 01:02:25;;;;;;;22.17;9.80;;;13.40;99.90;;;;;;5083299;28;20042;-81
2022/10/22 01:04:51;;;;;;;113.55;11.20;;;13.30;99.90;;;;;;5073227;28;20035;-82
2022/10/22 01:07:20;;;;;;;74.32;11.75;;;13.30;99.90;;;;;;5081111;28;20115;-81
2022/10/22 01:09:51;;;;;;;80.10;11.50;;;13.30;99.90;;;;;;5079550;28;20016;-83
2022/10/22 01:12:26;;;;;;;91.00;13.18;;;13.30;99.90;;;;;;5079966;28;20062;-82
2022/10/22 01:15:04;;;;;;;168.10;12.13;;;13.30;99.90;;;;;;5098754;28;20031;-83
2022/10/22 01:17:37;;;;;;;167.07;12.48;;;13.30;99.90;;;;;;5082764;28;20052;-81
2022/10/22 01:20:30;;;;;;;59.70;12.63;;;13.30;99.90;;;;;;5082880;28;20027;-83
2022/10/22 01:23:32;;;;;;;36.70;11.68;;;13.30;99.90;;;;;;5082105;28;20154;-81
2022/10/22 01:26:19;;;;;;;19.98;11.27;;;13.30;99.90;;;;;;5084512;28;20099;-79
2022/10/22 01:29:12;;;;;;;28.77;11.52;;;13.30;99.90;;;;;;5098415;28;20020;-82
2022/10/22 01:31:43;;;;;;;27.05;12.40;;;13.30;99.90;;;;;;5095762;28;20085;-81
2022/10/22 01:34:12;;;;;;;33.47;12.32;;;13.20;99.90;;;;;;5090948;28;20020;-81
2022/10/22 01:36:39;;;;;;;208.80;13.90;;;13.20;99.90;;;;;;5082548;28;20088;-81
2022/10/22 01:39:06;;;;;;;138.82;13.05;;;13.20;99.90;;;;;;5095619;28;20032;-79
2022/10/22 01:41:33;;;;;;;154.35;12.80;;;13.20;99.90;;;;;;5093606;28;20020;-79
2022/10/22 01:43:59;;;;;;;384.90;14.80;;;13.20;99.90;;;;;;5081574;28;20031;-81
2022/10/22 01:46:27;;;;;;;130.45;13.10;;;13.20;99.90;;;;;;5081825;28;20052;-80
2022/10/22 01:49:32;;;;;;;86.28;13.77;;;13.10;99.90;;;;;;5091400;28;20586;-79
2022/10/22 01:52:41;;;;;;;209.65;13.43;;;13.10;99.90;;;;;;5064321;28;20496;-82
2022/10/22 01:55:10;;;;;;;318.65;14.38;;;13.10;99.90;;;;;;5077922;28;20039;-80
2022/10/22 01:57:52;;;;;;;31.70;13.05;;;13.10;99.90;;;;;;5081246;28;20081;-80
2022/10/22 02:00:19;;;;;;;152.27;12.35;;;13.10;99.90;;;;;;5082667;28;20020;-83
2022/10/22 02:03:06;;;;;;;172.05;14.13;;;13.00;99.90;;;;;;5082505;28;20028;-80
2022/10/22 02:05:58;;;;;;;145.05;14.10;;;13.00;99.90;;;;;;5094238;28;20145;-80
2022/10/22 02:08:28;;;;;;;126.93;13.63;;;13.10;99.90;;;;;;5087152;28;20068;-82
2022/10/22 02:10:56;;;;;;;254.50;15.27;;;13.00;99.90;;;;;;5094656;28;20054;-78
2022/10/22 02:13:26;;;;;;;207.00;15.20;;;13.10;99.90;;;;;;5081561;28;20047;-80
2022/10/22 02:15:53;;;;;;;46.45;14.60;;;13.00;99.90;;;;;;5073201;28;20416;-80
2022/10/22 02:18:24;;;;;;;40.25;12.05;;;13.00;99.90;;;;;;5082301;28;20019;-79
2022/10/22 02:20:50;;;;;;;269.95;16.88;;;13.00;99.90;;;;;;5092370;28;20077;-78
2022/10/22 02:23:16;;;;;;;103.65;14.00;;;13.00;99.90;;;;;;5099865;28;20109;-80
2022/10/22 02:25:55;;;;;;;45.75;13.93;;;13.00;99.90;;;;;;5074751;28;20054;-78
2022/10/22 02:28:36;;;;;;;33.00;13.10;;;13.00;99.90;;;;;;5090690;28;20024;-80
2022/10/22 02:31:18;;;;;;;33.15;12.80;;;13.00;99.90;;;;;;5090492;28;20024;-80
2022/10/22 02:33:51;;;;;;;97.60;15.07;;;13.00;99.90;;;;;;5080143;28;20024;-80
2022/10/22 02:36:18;;;;;;;51.60;13.88;;;13.00;99.90;;;;;;5084956;28;20092;-79
2022/10/22 02:38:46;;;;;;;26.73;13.45;;;13.00;99.90;;;;;;5093515;28;20039;-79
2022/10/22 02:41:12;;;;;;;43.95;12.57;;;13.00;99.90;;;;;;5076037;28;20420;-78
2022/10/22 02:43:44;;;;;;;62.00;12.98;;;12.90;99.90;;;;;;5093307;28;20028;-80
2022/10/22 05:51:43;;;;;;;28.45;9.15;;;11.60;99.90;;;;;;5266452;22;21050;-74
2022/10/22 05:54:22;;;;;;;31.23;10.18;;;11.50;99.90;;;;;;5049986;28;20033;-78
2022/10/22 05:56:51;;;;;;;22.35;10.15;;;11.50;99.90;;;;;;5050638;28;20037;-77
2022/10/22 05:59:16;;;;;;;29.10;10.75;;;11.50;99.90;;;;;;5050937;28;20124;-77
2022/10/22 06:01:42;;;;;;;27.83;11.10;;;11.50;99.90;;;;;;5033800;28;20037;-76
2022/10/22 06:04:12;;;;;;;47.20;12.00;;;11.50;99.90;;;;;;5051785;28;20035;-76
2022/10/22 06:06:58;;;;;;;92.97;14.05;;;11.50;99.90;;;;;;5051120;28;20033;-75
2022/10/22 06:09:27;;;;;;;29.98;11.45;;;11.60;99.90;;;;;;5052402;28;20033;-75
2022/10/22 06:11:54;;;;;;;26.17;12.48;;;11.60;99.90;;;;;;5034246;28;20021;-75
2022/10/22 06:14:21;;;;;;;113.65;13.60;;;11.60;99.90;;;;;;5051632;28;20025;-74
2022/10/22 06:16:47;;;;;;;189.20;15.48;;;11.60;99.90;;;;;;5034075;28;20372;-74
2022/10/22 06:19:15;;;;;;;26.73;12.93;;;11.60;99.90;;;;;;5052499;28;20033;-76
2022/10/22 06:21:41;;;;;;;250.45;17.42;;;11.60;99.90;;;;;;5033456;28;20472;-76
2022/10/22 06:24:09;;;;;;;200.90;17.90;;;11.60;99.90;;;;;;5049369;28;20017;-76
2022/10/22 06:26:35;;;;;;;34.35;15.20;;;11.70;99.90;;;;;;5049371;28;20033;-75
2022/10/22 06:29:01;;;;;;;24.13;14.07;;;11.70;99.90;;;;;;5050621;28;20120;-75
2022/10/22 06:31:27;;;;;;;23.75;13.23;;;11.60;99.90;;;;;;5050000;28;20057;-74
2022/10/22 06:33:54;;;;;;;32.53;14.52;;;11.60;99.90;;;;;;5050390;28;20109;-74
2022/10/22 06:36:22;;;;;;;28.05;13.77;;;11.60;99.90;;;;;;5032078;28;20033;-77
2022/10/22 06:38:51;;;;;;;136.20;16.42;;;11.60;99.90;;;;;;5032325;28;20093;-76
2022/10/22 06:41:17;;;;;;;46.83;14.65;;;11.60;99.90;;;;;;5032429;28;20089;-77
2022/10/22 06:43:48;;;;;;;113.75;15.85;;;11.50;99.90;;;;;;5051008;28;20029;-75
2022/10/22 06:46:18;;;;;;;26.92;14.02;;;11.60;99.90;;;;;;5038547;28;20045;-75
2022/10/22 06:48:51;;;;;;;32.45;15.90;;;11.60;99.90;;;;;;5032687;28;20089;-76
2022/10/22 06:51:18;;;;;;;27.17;15.45;;;11.70;99.90;;;;;;5050208;28;20032;-75
2022/10/22 06:53:44;;;;;;;24.77;14.77;;;11.70;99.90;;;;;;5051300;28;20072;-74
2022/10/22 06:56:12;;;;;;;40.72;20.45;;;11.70;99.90;;;;;;5052877;28;20029;-75
2022/10/22 06:58:38;;;;;;;33.17;17.95;;;11.70;99.90;;;;;;5051123;28;20060;-75
2022/10/22 07:01:07;;;;;;;34.97;20.20;;;11.70;99.90;;;;;;5050791;28;20446;-76
2022/10/22 07:03:33;;;;;;;37.28;21.75;;;11.80;99.90;;;;;;5033760;28;20028;-75
2022/10/22 07:06:00;;;;;;;27.95;16.45;;;11.90;99.90;;;;;;5051348;28;20068;-75
2022/10/22 07:08:26;;;;;;;27.50;15.25;;;12.10;99.90;;;;;;5052249;28;20380;-74
2022/10/22 07:10:52;;;;;;;25.67;13.65;;;12.30;99.90;;;;;;5050887;28;20032;-76
2022/10/22 07:13:17;;;;;;;28.00;15.02;;;12.50;99.90;;;;;;5034056;28;20057;-74
2022/10/22 07:15:43;;;;;;;26.80;14.38;;;12.70;99.90;;;;;;5050639;28;20033;-74
2022/10/22 07:18:09;;;;;;;25.60;13.52;;;12.80;99.90;;;;;;5057432;28;20024;-74
2022/10/22 07:20:34;;;;;;;23.25;13.35;;;12.90;99.90;;;;;;5051485;28;20033;-75
2022/10/22 07:23:00;;;;;;;28.70;14.75;;;13.00;99.90;;;;;;5054538;28;20182;-76
2022/10/22 07:25:25;;;;;;;26.08;14.45;;;13.10;99.90;;;;;;5053738;28;20064;-74
2022/10/22 07:27:51;;;;;;;23.25;13.65;;;13.10;99.90;;;;;;5054045;28;20049;-75
2022/10/22 07:30:19;;;;;;;26.55;14.05;;;13.10;99.90;;;;;;5055913;28;20029;-78
2022/10/22 07:32:45;;;;;;;32.22;14.05;;;13.20;99.90;;;;;;5039138;28;20039;-78
2022/10/22 07:35:11;;;;;;;29.85;13.70;;;13.20;99.90;;;;;;5053498;28;20053;-75
2022/10/22 07:37:37;;;;;;;28.35;13.50;;;13.20;99.90;;;;;;5054589;28;20109;-77
2022/10/22 07:40:03;;;;;;;26.35;13.77;;;13.20;99.90;;;;;;5054558;28;20950;-74
2022/10/22 07:42:28;;;;;;;22.13;13.30;;;13.20;99.90;;;;;;5038143;28;20515;-74
2022/10/22 07:44:54;;;;;;;26.52;13.80;;;13.30;99.90;;;;;;5054633;28;20041;-74
2022/10/22 07:47:19;;;;;;;23.23;12.35;;;13.30;99.90;;;;;;5053640;28;20041;-77
2022/10/22 07:49:46;;;;;;;28.42;14.32;;;13.40;99.90;;;;;;5036615;28;20033;-76
2022/10/22 07:52:11;;;;;;;22.50;13.07;;;13.60;99.90;;;;;;5053335;28;20049;-75
2022/10/22 07:54:37;;;;;;;21.88;13.65;;;13.70;99.90;;;;;;5053867;28;20044;-75
2022/10/22 07:57:03;;;;;;;25.95;15.05;;;13.80;99.90;;;;;;5056364;28;20090;-73
2022/10/22 07:59:28;;;;;;;22.73;14.07;;;13.90;99.90;;;;;;5054343;28;20053;-75
2022/10/22 08:01:54;;;;;;;24.20;13.27;;;13.90;99.90;;;;;;5035727;28;20032;-77
2022/10/22 08:04:20;;;;;;;27.40;15.00;;;13.90;99.90;;;;;;5054376;28;20029;-74
2022/10/22 08:06:46;;;;;;;23.05;13.85;;;13.90;99.90;;;;;;5053697;28;20048;-75
2022/10/22 08:09:11;;;;;;;29.85;15.02;;;13.90;99.90;;;;;;5037042;28;20037;-78
2022/10/22 08:11:38;;;;;;;25.17;13.55;;;13.90;99.90;;;;;;5036800;28;20085;-75
2022/10/22 08:14:03;;;;;;;25.83;14.38;;;13.90;99.90;;;;;;5055595;28;20617;-76
2022/10/22 08:16:29;;;;;;;33.67;15.98;;;13.90;99.90;;;;;;5052785;28;20025;-77
2022/10/22 08:18:55;;;;;;;24.33;15.27;;;13.90;99.90;;;;;;5034742;28;20048;-77
2022/10/22 08:21:20;;;;;;;26.40;15.90;;;13.90;99.90;;;;;;5055591;28;20056;-77
2022/10/22 08:23:46;;;;;;;28.67;16.23;;;13.90;99.90;;;;;;5052182;28;20048;-76
2022/10/22 08:26:12;;;;;;;28.75;16.23;;;14.00;99.90;;;;;;5035660;28;20074;-76
2022/10/22 08:28:39;;;;;;;38.88;15.90;;;14.00;99.90;;;;;;5053807;28;20032;-77
2022/10/22 08:31:06;;;;;;;24.13;15.25;;;14.00;99.90;;;;;;5054318;28;20060;-77
2022/10/22 08:33:33;;;;;;;30.23;15.82;;;14.20;99.90;;;;;;5035429;28;20104;-76
2022/10/22 08:35:58;;;;;;;25.15;13.82;;;14.30;99.90;;;;;;5036224;28;20501;-77
2022/10/22 08:38:24;;;;;;;26.45;14.48;;;14.40;99.90;;;;;;5054815;28;20021;-77
2022/10/22 08:41:09;;;;;;;28.63;15.73;;;14.60;99.90;;;;;;5036411;28;20115;-76
2022/10/22 08:44:10;;;;;;;25.63;14.23;;;14.70;99.90;;;;;;5054040;28;20044;-75
2022/10/22 08:47:02;;;;;;;29.40;13.35;;;14.80;99.90;;;;;;5023997;28;20101;-77
2022/10/22 08:49:34;;;;;;;27.55;13.55;;;15.00;99.90;;;;;;5034546;28;20041;-75
2022/10/22 08:52:01;;;;;;;22.83;13.13;;;15.20;99.90;;;;;;5052935;28;20603;-79
2022/10/22 08:54:48;;;;;;;26.17;12.98;;;15.40;99.90;;;;;;5034709;28;20021;-75
2022/10/22 08:57:32;;;;;;;25.67;12.48;;;15.50;99.90;;;;;;5036510;28;20212;-77
2022/10/22 09:00:20;;;;;;;20.85;11.13;;;15.70;99.90;;;;;;5034311;28;20110;-74
2022/10/22 09:03:00;;;;;;;19.60;11.45;;;15.70;99.90;;;;;;5055601;28;20036;-75
2022/10/22 09:05:54;;;;;;;17.27;10.77;;;15.70;99.90;;;;;;5052104;28;20192;-76
2022/10/22 09:08:20;;;;;;;21.30;11.00;;;15.60;99.90;;;;;;5052147;28;20044;-73
2022/10/22 09:10:56;;;;;;;20.40;10.85;;;15.60;99.90;;;;;;5053584;28;20022;-71
2022/10/22 09:13:22;;;;;;;18.27;9.88;;;15.50;99.90;;;;;;5054650;28;20025;-76
2022/10/22 09:15:57;;;;;;;23.25;12.05;;;15.50;99.90;;;;;;5053552;28;20702;-76
2022/10/22 09:18:40;;;;;;;22.05;10.93;;;15.50;99.90;;;;;;5054814;28;20029;-73
2022/10/22 09:21:19;;;;;;;18.33;10.60;;;15.50;99.90;;;;;;5055860;28;20013;-75
2022/10/22 09:24:20;;;;;;;22.67;11.10;;;15.60;99.90;;;;;;5053636;28;20470;-77
2022/10/22 09:26:45;;;;;;;20.23;9.93;;;15.80;99.90;;;;;;5054868;28;20092;-78
2022/10/22 09:29:17;;;;;;;28.20;9.93;;;15.90;99.90;;;;;;5035386;28;20773;-75
2022/10/22 09:31:43;;;;;;;18.85;9.95;;;16.00;99.90;;;;;;5034376;28;20037;-76
2022/10/22 09:34:09;;;;;;;19.55;11.07;;;16.10;99.90;;;;;;5052310;28;20024;-80
2022/10/22 09:36:36;;;;;;;16.85;10.02;;;16.30;99.90;;;;;;5056976;28;20029;-78
2022/10/22 09:39:03;;;;;;;18.65;9.43;;;16.40;99.90;;;;;;5036927;28;20473;-75
2022/10/22 09:41:29;;;;;;;17.90;9.07;;;16.50;99.90;;;;;;5035424;28;20025;-76
2022/10/22 09:43:55;;;;;;;19.55;9.32;;;16.60;99.90;;;;;;5051368;28;20034;-79
2022/10/22 09:46:23;;;;;;;21.42;9.25;;;16.70;99.90;;;;;;5035883;28;20049;-77
2022/10/22 09:49:09;;;;;;;14.98;7.85;;;16.70;99.90;;;;;;5033872;28;20443;-78
2022/10/22 09:51:41;;;;;;;18.17;8.75;;;16.70;99.90;;;;;;5052889;28;20029;-79
2022/10/22 09:54:33;;;;;;;24.73;8.50;;;16.80;99.90;;;;;;5052384;28;20110;-77
2022/10/22 09:57:21;;;;;;;17.25;8.63;;;16.90;99.90;;;;;;5048616;28;20425;-79
2022/10/22 09:59:49;;;;;;;17.17;9.18;;;16.90;99.90;;;;;;5053220;28;20059;-81
2022/10/22 10:02:18;;;;;;;23.60;7.88;;;17.00;99.90;;;;;;5036260;28;20566;-81
2022/10/22 10:04:53;;;;;;;24.45;9.20;;;17.10;99.90;;;;;;5035009;28;20048;-78
2022/10/22 10:07:32;;;;;;;14.77;7.32;;;17.20;99.90;;;;;;5034344;28;20033;-81
2022/10/22 10:09:58;;;;;;;13.30;7.75;;;17.20;99.90;;;;;;5034353;28;20060;-79
2022/10/22 10:12:32;;;;;;;15.57;6.88;;;17.30;99.90;;;;;;5051535;28;20029;-82
2022/10/22 10:14:58;;;;;;;12.85;7.13;;;17.30;99.90;;;;;;5050840;28;20033;-80
2022/10/22 10:17:42;;;;;;;27.23;7.57;;;17.40;99.90;;;;;;5034833;28;20032;-79
2022/10/22 10:20:33;;;;;;;17.20;7.50;;;17.50;99.90;;;;;;5054749;28;20456;-80
2022/10/22 10:23:02;;;;;;;14.85;7.03;;;17.50;99.90;;;;;;5051080;28;20060;-83
2022/10/22 10:25:54;;;;;;;18.35;6.82;;;17.70;99.90;;;;;;5038707;28;20059;-80
2022/10/22 10:28:42;;;;;;;19.38;6.78;;;17.80;99.90;;;;;;5056120;28;20040;-79
2022/10/22 10:31:43;;;;;;;17.23;6.80;;;17.90;99.90;;;;;;5034748;28;20130;-83
2022/10/22 10:34:32;;;;;;;17.38;6.57;;;18.00;99.90;;;;;;5033909;28;20068;-76
2022/10/22 10:37:23;;;;;;;19.23;6.60;;;18.10;99.90;;;;;;5035521;28;20088;-78
2022/10/22 10:39:55;;;;;;;14.55;6.40;;;18.20;99.90;;;;;;5035776;28;20025;-78
2022/10/22 10:42:39;;;;;;;15.98;5.93;;;18.30;99.90;;;;;;5033752;28;20036;-86
2022/10/22 10:45:11;;;;;;;21.20;6.87;;;18.30;99.90;;;;;;5052225;28;20076;-79
2022/10/22 10:47:55;;;;;;;15.05;6.25;;;18.30;99.90;;;;;;5033563;28;20032;-80
2022/10/22 10:50:43;;;;;;;20.55;7.10;;;18.30;99.90;;;;;;5053648;28;20085;-74
2022/10/22 10:53:37;;;;;;;14.68;5.88;;;18.30;99.90;;;;;;5029437;28;20046;-77
2022/10/22 10:56:28;;;;;;;15.88;6.60;;;18.30;99.90;;;;;;5031783;28;20048;-76
2022/10/22 10:59:08;;;;;;;12.63;6.72;;;18.40;99.90;;;;;;5033620;28;20029;-75
2022/10/22 11:01:39;;;;;;;16.48;7.10;;;18.40;99.90;;;;;;5028502;28;20831;-77
2022/10/22 11:04:14;;;;;;;14.50;6.47;;;18.50;99.90;;;;;;5031823;28;20021;-78
2022/10/22 11:06:42;;;;;;;19.50;6.57;;;18.60;99.90;;;;;;5030932;28;20054;-74
2022/10/22 11:09:20;;;;;;;14.20;6.45;;;18.60;99.90;;;;;;5031777;28;20034;-80
2022/10/22 11:11:50;;;;;;;22.00;6.68;;;18.60;99.90;;;;;;5029319;28;20030;-76
2022/10/22 11:14:50;;;;;;;23.23;7.30;;;18.50;99.90;;;;;;5030715;28;20022;-75
2022/10/22 11:17:17;;;;;;;13.07;6.13;;;18.50;99.90;;;;;;5016462;28;20121;-77
2022/10/22 11:20:01;;;;;;;16.38;6.60;;;18.50;99.90;;;;;;5028913;28;20053;-78
2022/10/22 11:23:05;;;;;;;10.30;5.78;;;18.50;99.90;;;;;;5032543;28;20385;-86
2022/10/22 11:25:39;;;;;;;13.98;6.05;;;18.60;99.90;;;;;;5028036;28;20050;-78
2022/10/22 11:28:16;;;;;;;14.20;6.65;;;18.80;99.90;;;;;;5035132;28;20025;-77
2022/10/22 11:30:47;;;;;;;19.33;5.80;;;19.10;99.90;;;;;;5028630;28;20022;-78
2022/10/22 11:33:20;;;;;;;12.60;6.20;;;19.30;99.90;;;;;;5028950;28;20101;-76
2022/10/22 11:35:47;;;;;;;20.63;6.57;;;19.60;99.90;;;;;;5028353;28;20205;-74
2022/10/22 11:38:19;;;;;;;17.95;6.65;;;19.90;99.90;;;;;;5032554;28;20030;-73
2022/10/22 11:40:58;;;;;;;19.67;5.75;;;20.10;99.90;;;;;;5028112;28;20036;-74
2022/10/22 11:44:06;;;;;;;15.32;5.53;;;20.20;99.90;;;;;;5029499;28;20025;-77
2022/10/22 11:46:57;;;;;;;11.13;5.07;;;20.00;99.90;;;;;;5029611;28;20041;-84
2022/10/22 11:50:13;;;;;;;14.63;4.93;;;19.80;99.90;;;;;;5027855;28;20164;-85
2022/10/22 11:52:49;;;;;;;10.00;4.28;;;19.60;99.90;;;;;;5028976;28;20052;-85
2022/10/22 11:55:30;;;;;;;12.40;3.92;;;19.30;99.90;;;;;;5053049;28;20022;-84
2022/10/22 11:57:58;;;;;;;19.88;4.32;;;19.50;99.90;;;;;;5051646;28;20099;-79
2022/10/22 12:00:55;;;;;;;11.30;3.80;;;19.60;99.90;;;;;;5050713;28;20029;-81
2022/10/22 12:03:39;;;;;;;13.38;4.10;;;19.60;99.90;;;;;;5049513;28;20112;-79
2022/10/22 12:06:10;;;;;;;;;;;19.60;99.90;;;;;;5051487;28;20072;-74
2022/10/22 12:08:50;;;;;;;13.48;4.50;;;19.60;99.90;;;;;;5032739;28;19944;-77
2022/10/22 12:11:28;;;;;;;14.00;4.22;;;19.40;99.90;;;;;;5036127;28;20053;-82
2022/10/22 12:14:25;;;;;;;13.13;4.28;;;19.60;99.90;;;;;;5055539;28;20010;-76
2022/10/22 12:16:52;;;;;;;17.15;3.60;;;19.70;99.90;;;;;;5054340;28;20084;-81
2022/10/22 12:19:36;;;;;;;15.10;4.15;;;20.00;99.90;;;;;;5053980;28;20029;-81
2022/10/22 12:22:16;;;;;;;14.95;3.85;;;20.10;99.90;;;;;;5052592;28;20477;-75
2022/10/22 12:24:48;;;;;;;16.38;4.18;;;20.30;99.90;;;;;;5054037;28;20105;-80
2022/10/22 12:27:32;;;;;;;13.95;3.97;;;20.20;99.90;;;;;;5037726;28;20052;-88
2022/10/22 12:30:02;;;;;;;14.07;3.75;;;20.10;99.90;;;;;;5035798;28;20073;-74
2022/10/22 12:32:34;;;;;;;14.15;4.03;;;19.80;99.90;;;;;;5053006;28;20041;-74
2022/10/22 12:35:07;;;;;;;15.13;4.55;;;19.70;99.90;;;;;;5043167;28;20064;-77
2022/10/22 12:37:35;;;;;;;10.00;3.65;;;19.80;99.90;;;;;;5051868;28;20067;-74
2022/10/22 12:40:20;;;;;;;15.02;3.70;;;19.80;99.90;;;;;;5035803;28;20029;-78
2022/10/22 12:42:55;;;;;;;9.40;3.58;;;19.90;99.90;;;;;;5034770;28;20449;-75
2022/10/22 12:45:24;;;;;;;13.15;3.88;;;19.90;99.90;;;;;;5052764;28;20111;-81
2022/10/22 12:47:56;;;;;;;12.63;3.88;;;20.10;99.90;;;;;;5053806;28;20560;-73
2022/10/22 12:50:30;;;;;;;12.65;3.90;;;20.30;99.90;;;;;;5035519;28;20025;-77
2022/10/22 12:52:55;;;;;;;7.43;3.40;;;20.40;99.90;;;;;;5036310;28;20063;-75
2022/10/22 12:55:24;;;;;;;19.15;4.40;;;20.50;99.90;;;;;;5053799;28;20092;-77
2022/10/22 12:57:51;;;;;;;11.60;4.13;;;20.30;99.90;;;;;;5051734;28;20020;-77
2022/10/22 13:00:26;;;;;;;15.15;4.22;;;20.00;99.90;;;;;;5052414;28;20085;-74
2022/10/22 13:02:52;;;;;;;18.65;4.13;;;20.10;99.90;;;;;;5037073;28;20029;-78
2022/10/22 13:05:26;;;;;;;10.88;4.38;;;20.20;99.90;;;;;;5036246;28;20037;-78
2022/10/22 13:08:15;;;;;;;13.60;4.10;;;20.20;99.90;;;;;;5052828;28;20028;-77
2022/10/22 13:10:59;;;;;;;13.95;4.07;;;20.00;99.90;;;;;;5053869;28;20037;-77
2022/10/22 13:13:29;;;;;;;14.90;4.22;;;19.70;99.90;;;;;;5051801;28;20029;-82
2022/10/22 13:15:55;;;;;;;14.10;3.72;;;19.40;99.90;;;;;;5054435;28;20037;-75
2022/10/22 13:18:24;;;;;;;15.27;4.35;;;19.10;99.90;;;;;;5050763;28;20032;-78
2022/10/22 13:21:01;;;;;;;10.02;3.60;;;18.90;99.90;;;;;;5032894;28;20021;-74
2022/10/22 13:23:31;;;;;;;16.42;4.25;;;18.70;99.90;;;;;;5036846;28;20037;-78
2022/10/22 13:26:15;;;;;;;15.10;3.95;;;18.50;99.90;;;;;;5053098;28;20040;-69
2022/10/22 13:28:42;;;;;;;14.73;3.83;;;18.40;99.90;;;;;;5054743;28;20396;-77
2022/10/22 13:31:09;;;;;;;6.82;3.80;;;18.20;99.90;;;;;;5051286;28;20148;-79
2022/10/22 13:33:39;;;;;;;11.05;4.07;;;18.10;99.90;;;;;;5053851;28;20037;-79
2022/10/22 13:36:05;;;;;;;14.02;4.20;;;18.10;99.90;;;;;;5052022;28;20025;-84
2022/10/22 13:38:31;;;;;;;15.05;4.82;;;18.10;99.90;;;;;;5036151;28;20017;-83
2022/10/22 13:40:58;;;;;;;15.98;4.38;;;18.10;99.90;;;;;;5034780;28;20029;-83
2022/10/22 13:43:24;;;;;;;18.50;4.63;;;18.10;99.90;;;;;;5034814;28;20025;-85
2022/10/22 13:45:57;;;;;;;12.35;3.90;;;18.30;99.90;;;;;;5033040;28;20033;-80
2022/10/22 13:48:25;;;;;;;10.77;3.72;;;18.70;99.90;;;;;;5051029;28;20029;-80
2022/10/22 13:50:51;;;;;;;14.70;4.10;;;18.80;99.90;;;;;;5050793;28;20079;-83
2022/10/22 13:53:22;;;;;;;13.20;4.38;;;18.90;99.90;;;;;;5033126;28;20056;-82
2022/10/22 13:55:49;;;;;;;9.77;3.45;;;19.10;99.90;;;;;;5033749;28;20037;-77
2022/10/22 13:58:20;;;;;;;9.77;4.03;;;19.30;99.90;;;;;;5050538;28;20053;-81
2022/10/22 14:00:50;;;;;;;10.43;4.03;;;19.20;99.90;;;;;;5035562;28;20037;-82
2022/10/22 14:03:19;;;;;;;8.75;3.65;;;19.10;99.90;;;;;;5035538;28;20037;-76
2022/10/22 14:05:45;;;;;;;13.95;3.75;;;19.10;99.90;;;;;;5035065;28;20052;-80
2022/10/22 14:08:15;;;;;;;11.35;3.90;;;19.10;99.90;;;;;;5050766;28;20025;-86
2022/10/22 14:10:41;;;;;;;10.15;3.30;;;19.30;99.90;;;;;;5033544;28;20041;-70
2022/10/22 14:13:09;;;;;;;10.35;3.80;;;19.20;99.90;;;;;;5052472;28;20044;-75
2022/10/22 14:15:35;;;;;;;12.40;3.70;;;19.00;99.90;;;;;;5052476;28;20033;-84
2022/10/22 14:18:03;;;;;;;13.18;3.80;;;18.70;99.90;;;;;;5051858;28;20029;-80
2022/10/22 14:20:32;;;;;;;14.25;3.70;;;18.40;99.90;;;;;;5033317;28;20052;-87
2022/10/22 14:23:20;;;;;;;9.20;3.97;;;18.20;99.90;;;;;;5032612;28;20089;-85
2022/10/22 14:25:47;;;;;;;10.75;3.97;;;18.10;99.90;;;;;;5049875;28;20040;-82
2022/10/22 14:28:13;;;;;;;8.27;3.53;;;18.00;99.90;;;;;;5033053;28;20061;-75
2022/10/22 14:30:40;;;;;;;11.32;3.58;;;18.00;99.90;;;;;;5047703;28;20103;-80
2022/10/22 14:33:15;;;;;;;16.17;3.58;;;17.90;99.90;;;;;;5031724;28;20515;-76
2022/10/22 14:35:41;;;;;;;9.52;3.30;;;17.80;99.90;;;;;;5031718;28;20024;-77
2022/10/22 14:38:07;;;;;;;9.93;3.72;;;17.70;99.90;;;;;;5032565;28;20021;-79
2022/10/22 14:40:33;;;;;;;9.23;3.63;;;17.60;99.90;;;;;;5052032;28;20029;-75
2022/10/22 14:42:58;;;;;;;8.95;3.90;;;17.50;99.90;;;;;;5050537;28;20033;-78
2022/10/22 14:45:25;;;;;;;7.18;3.67;;;17.50;99.90;;;;;;5050526;28;20041;-79
2022/10/22 14:47:54;;;;;;;9.85;3.50;;;17.40;99.90;;;;;;5032564;28;20465;-78
2022/10/22 14:50:20;;;;;;;9.00;3.70;;;17.40;99.90;;;;;;5033983;28;20029;-79
2022/10/22 14:52:46;;;;;;;13.63;3.47;;;17.30;99.90;;;;;;5028605;28;20049;-81
2022/10/22 14:55:14;;;;;;;7.65;3.80;;;17.30;99.90;;;;;;5029097;28;20030;-76
2022/10/22 14:57:40;;;;;;;9.18;3.90;;;17.30;99.90;;;;;;5030910;28;20087;-79
2022/10/22 15:00:10;;;;;;;8.13;3.88;;;17.20;99.90;;;;;;5028340;28;20030;-78
2022/10/22 15:02:35;;;;;;;14.60;3.88;;;17.20;99.90;;;;;;5029620;28;20048;-79
2022/10/22 15:05:01;;;;;;;8.75;4.65;;;17.20;99.90;;;;;;5032657;28;21900;-76
2022/10/22 15:07:27;;;;;;;11.70;3.90;;;17.20;99.90;;;;;;5030565;28;20037;-76
2022/10/22 15:09:53;;;;;;;7.32;3.92;;;17.20;99.90;;;;;;5029497;28;20093;-78
2022/10/22 15:12:19;;;;;;;13.93;4.03;;;17.10;99.90;;;;;;5029275;28;20022;-75
2022/10/22 15:14:46;;;;;;;12.55;4.85;;;17.10;99.90;;;;;;5032542;28;20093;-86
2022/10/22 15:17:12;;;;;;;9.52;4.63;;;17.10;99.90;;;;;;5029184;28;20969;-73
2022/10/22 15:19:38;;;;;;;12.63;4.88;;;17.00;99.90;;;;;;5031272;28;20029;-82
2022/10/22 15:22:04;;;;;;;14.90;4.93;;;17.00;99.90;;;;;;5028267;28;20126;-84
2022/10/22 15:24:31;;;;;;;14.40;4.60;;;17.00;99.90;;;;;;5031723;28;20029;-82
2022/10/22 15:26:56;;;;;;;17.58;4.85;;;17.00;99.90;;;;;;5027965;28;20053;-83
2022/10/22 15:29:22;;;;;;;9.70;4.18;;;17.00;99.90;;;;;;5032051;28;20036;-80
2022/10/22 15:31:53;;;;;;;8.68;4.40;;;17.00;99.90;;;;;;5031344;28;20026;-83
2022/10/22 15:34:27;;;;;;;10.45;5.07;;;16.90;99.90;;;;;;5033052;28;20037;-82
2022/10/22 15:36:55;;;;;;;12.38;5.05;;;16.80;99.90;;;;;;5025570;28;20041;-84
2022/10/22 15:39:22;;;;;;;16.10;5.25;;;16.80;99.90;;;;;;5028904;28;20096;-84
2022/10/22 15:41:48;;;;;;;11.40;5.10;;;16.80;99.90;;;;;;5031018;28;20097;-86
2022/10/22 15:44:19;;;;;;;11.63;4.57;;;16.70;99.90;;;;;;5029766;28;20060;-86
2022/10/22 15:46:45;;;;;;;14.63;5.38;;;16.70;99.90;;;;;;5032145;28;20160;-80
2022/10/22 15:49:11;;;;;;;11.30;4.90;;;16.70;99.90;;;;;;5038959;28;20056;-75
2022/10/22 15:51:37;;;;;;;13.80;4.85;;;16.70;99.90;;;;;;5031726;28;20070;-72
2022/10/22 15:54:03;;;;;;;16.52;5.90;;;16.60;99.90;;;;;;5052828;28;20140;-85
2022/10/22 15:56:29;;;;;;;11.68;5.05;;;16.60;99.90;;;;;;5052905;28;20033;-77
2022/10/22 15:58:57;;;;;;;10.38;5.30;;;16.60;99.90;;;;;;5054443;28;20052;-84
2022/10/22 16:01:25;;;;;;;12.93;5.28;;;16.50;99.90;;;;;;5055440;28;20037;-84
2022/10/22 16:03:58;;;;;;;17.48;5.55;;;16.50;99.90;;;;;;5036300;28;20021;-81